createdAt,value
2018-09-01T00:00:06.832Z,1011.33
2018-09-01T00:01:06.798Z,1011.35
2018-09-01T00:02:06.775Z,1011.37
2018-09-01T00:03:06.752Z,1011.38
2018-09-01T00:04:06.725Z,1011.34
2018-09-01T00:05:06.702Z,1011.37
2018-09-01T00:06:06.669Z,1011.37
2018-09-01T00:07:06.648Z,1011.37
2018-09-01T00:08:06.617Z,1011.35
2018-09-01T00:09:06.597Z,1011.35
2018-09-01T00:10:06.565Z,1011.34
2018-09-01T00:11:06.561Z,1011.36
2018-09-01T00:12:06.519Z,1011.34
2018-09-01T00:13:06.487Z,1011.34
2018-09-01T00:14:06.468Z,1011.34
2018-09-01T00:15:06.435Z,1011.34
2018-09-01T00:16:06.418Z,1011.34
2018-09-01T00:17:06.392Z,1011.34
2018-09-01T00:18:06.362Z,1011.34
2018-09-01T00:19:06.336Z,1011.34
2018-09-01T00:20:06.311Z,1011.40
2018-09-01T00:21:06.279Z,1011.39
2018-09-01T00:22:06.261Z,1011.40
2018-09-01T00:23:06.231Z,1011.38
2018-09-01T00:24:06.870Z,1011.38
2018-09-01T00:25:06.177Z,1011.37
2018-09-01T00:26:06.160Z,1011.36
2018-09-01T00:27:06.123Z,1011.36
2018-09-01T00:28:06.103Z,1011.40
2018-09-01T00:29:06.078Z,1011.33
2018-09-01T00:30:06.044Z,1011.37
2018-09-01T00:31:06.020Z,1011.35
2018-09-01T00:32:06.003Z,1011.38
2018-09-01T00:33:05.970Z,1011.32
2018-09-01T00:34:05.951Z,1011.39
2018-09-01T00:35:05.915Z,1011.37
2018-09-01T00:36:05.892Z,1011.33
2018-09-01T00:37:05.869Z,1011.34
2018-09-01T00:38:05.838Z,1011.35
2018-09-01T00:39:05.816Z,1011.38
2018-09-01T00:40:05.784Z,1011.35
2018-09-01T00:41:05.760Z,1011.33
2018-09-01T00:42:05.737Z,1011.37
2018-09-01T00:43:05.704Z,1011.36
2018-09-01T00:44:05.689Z,1011.39
2018-09-01T00:45:05.659Z,1011.40
2018-09-01T00:46:05.631Z,1011.42
2018-09-01T00:47:05.605Z,1011.38
2018-09-01T00:48:05.579Z,1011.39
2018-09-01T00:49:05.557Z,1011.40
2018-09-01T00:50:05.525Z,1011.43
2018-09-01T00:51:05.500Z,1011.42
2018-09-01T00:52:05.480Z,1011.47
2018-09-01T00:53:05.444Z,1011.46
2018-09-01T00:54:05.428Z,1011.47
2018-09-01T00:55:05.397Z,1011.47
2018-09-01T00:56:05.369Z,1011.46
2018-09-01T00:57:05.350Z,1011.45
2018-09-01T00:58:05.318Z,1011.43
2018-09-01T00:59:05.291Z,1011.48
2018-09-01T01:00:05.268Z,1011.48
2018-09-01T01:01:05.255Z,1011.46
2018-09-01T01:02:05.218Z,1011.45
2018-09-01T01:03:05.192Z,1011.44
2018-09-01T01:04:05.166Z,1011.43
2018-09-01T01:05:05.134Z,1011.49
2018-09-01T01:06:05.111Z,1011.45
2018-09-01T01:07:05.090Z,1011.46
2018-09-01T01:08:05.063Z,1011.46
2018-09-01T01:09:05.032Z,1011.47
2018-09-01T01:10:05.009Z,1011.46
2018-09-01T01:11:04.985Z,1011.45
2018-09-01T01:12:04.950Z,1011.46
2018-09-01T01:13:04.928Z,1011.50
2018-09-01T01:14:04.908Z,1011.54
2018-09-01T01:15:04.876Z,1011.51
2018-09-01T01:16:04.860Z,1011.52
2018-09-01T01:17:04.825Z,1011.46
2018-09-01T01:18:04.796Z,1011.43
2018-09-01T01:19:04.777Z,1011.45
2018-09-01T01:20:04.743Z,1011.42
2018-09-01T01:21:04.724Z,1011.40
2018-09-01T01:22:04.696Z,1011.41
2018-09-01T01:23:05.867Z,1011.44
2018-09-01T01:24:05.473Z,1011.43
2018-09-01T01:25:07.441Z,1011.46
2018-09-01T01:26:05.466Z,1011.44
2018-09-01T01:27:05.930Z,1011.47
2018-09-01T01:28:04.546Z,1011.44
2018-09-01T01:29:04.515Z,1011.43
2018-09-01T01:30:04.488Z,1011.41
2018-09-01T01:31:04.465Z,1011.42
2018-09-01T01:32:04.433Z,1011.43
2018-09-01T01:33:04.407Z,1011.44
2018-09-01T01:34:04.385Z,1011.48
2018-09-01T01:35:04.356Z,1011.52
2018-09-01T01:36:04.328Z,1011.49
2018-09-01T01:37:04.300Z,1011.51
2018-09-01T01:38:04.282Z,1011.55
2018-09-01T01:39:04.247Z,1011.50
2018-09-01T01:40:04.224Z,1011.53
2018-09-01T01:41:04.201Z,1011.52
2018-09-01T01:42:04.172Z,1011.53
2018-09-01T01:43:04.148Z,1011.52
2018-09-01T01:44:04.121Z,1011.48
2018-09-01T01:45:04.098Z,1011.49
2018-09-01T01:46:04.069Z,1011.53
2018-09-01T01:47:04.065Z,1011.50
2018-09-01T01:48:04.011Z,1011.52
2018-09-01T01:49:03.998Z,1011.48
2018-09-01T01:50:03.960Z,1011.46
2018-09-01T01:51:03.936Z,1011.51
2018-09-01T01:52:03.917Z,1011.49
2018-09-01T01:53:03.881Z,1011.53
2018-09-01T01:54:03.860Z,1011.48
2018-09-01T01:55:03.839Z,1011.51
2018-09-01T01:56:03.810Z,1011.54
2018-09-01T01:57:03.787Z,1011.54
2018-09-01T01:58:03.754Z,1011.57
2018-09-01T01:59:03.728Z,1011.57
2018-09-01T02:00:03.704Z,1011.58
2018-09-01T02:01:03.682Z,1011.60
2018-09-01T02:02:03.651Z,1011.55
2018-09-01T02:03:03.623Z,1011.59
2018-09-01T02:04:03.603Z,1011.57
2018-09-01T02:05:03.578Z,1011.54
2018-09-01T02:06:03.551Z,1011.58
2018-09-01T02:07:03.515Z,1011.55
2018-09-01T02:08:03.500Z,1011.54
2018-09-01T02:09:03.465Z,1011.54
2018-09-01T02:10:03.447Z,1011.53
2018-09-01T02:11:03.420Z,1011.52
2018-09-01T02:12:03.396Z,1011.48
2018-09-01T02:13:03.362Z,1011.52
2018-09-01T02:14:03.339Z,1011.56
2018-09-01T02:15:03.310Z,1011.51
2018-09-01T02:16:03.288Z,1011.53
2018-09-01T02:17:03.260Z,1011.60
2018-09-01T02:18:03.236Z,1011.62
2018-09-01T02:19:03.209Z,1011.65
2018-09-01T02:20:03.181Z,1011.62
2018-09-01T02:21:03.155Z,1011.61
2018-09-01T02:22:03.134Z,1011.63
2018-09-01T02:23:03.107Z,1011.63
2018-09-01T02:24:03.072Z,1011.64
2018-09-01T02:25:03.048Z,1011.59
2018-09-01T02:26:03.026Z,1011.57
2018-09-01T02:27:02.999Z,1011.61
2018-09-01T02:28:02.971Z,1011.59
2018-09-01T02:29:02.941Z,1011.61
2018-09-01T02:30:02.922Z,1011.57
2018-09-01T02:31:02.898Z,1011.59
2018-09-01T02:32:02.866Z,1011.66
2018-09-01T02:33:02.845Z,1011.62
2018-09-01T02:34:02.820Z,1011.60
2018-09-01T02:35:02.786Z,1011.60
2018-09-01T02:36:02.758Z,1011.62
2018-09-01T02:37:02.735Z,1011.60
2018-09-01T02:38:02.713Z,1011.58
2018-09-01T02:39:02.678Z,1011.63
2018-09-01T02:40:02.662Z,1011.58
2018-09-01T02:41:02.630Z,1011.63
2018-09-01T02:42:02.611Z,1011.63
2018-09-01T02:43:02.583Z,1011.60
2018-09-01T02:44:02.551Z,1011.63
2018-09-01T02:45:02.532Z,1011.61
2018-09-01T02:46:02.496Z,1011.64
2018-09-01T02:47:02.477Z,1011.63
2018-09-01T02:48:02.453Z,1011.64
2018-09-01T02:49:02.423Z,1011.66
2018-09-01T02:50:02.398Z,1011.64
2018-09-01T02:51:02.377Z,1011.65
2018-09-01T02:52:02.343Z,1011.66
2018-09-01T02:53:02.318Z,1011.65
2018-09-01T02:54:02.290Z,1011.67
2018-09-01T02:55:02.271Z,1011.64
2018-09-01T02:56:02.235Z,1011.67
2018-09-01T02:57:02.220Z,1011.68
2018-09-01T02:58:02.182Z,1011.68
2018-09-01T02:59:02.157Z,1011.68
2018-09-01T03:00:02.144Z,1011.70
2018-09-01T03:01:02.107Z,1011.67
2018-09-01T03:02:02.086Z,1011.65
2018-09-01T03:03:02.056Z,1011.64
2018-09-01T03:04:02.029Z,1011.62
2018-09-01T03:05:02.006Z,1011.63
2018-09-01T03:06:01.978Z,1011.64
2018-09-01T03:07:01.950Z,1011.64
2018-09-01T03:08:01.928Z,1011.60
2018-09-01T03:09:01.898Z,1011.66
2018-09-01T03:10:01.875Z,1011.64
2018-09-01T03:11:01.865Z,1011.64
2018-09-01T03:12:01.827Z,1011.63
2018-09-01T03:13:01.795Z,1011.63
2018-09-01T03:14:01.775Z,1011.64
2018-09-01T03:15:01.743Z,1011.66
2018-09-01T03:16:01.716Z,1011.64
2018-09-01T03:17:01.690Z,1011.72
2018-09-01T03:18:01.664Z,1011.71
2018-09-01T03:19:01.637Z,1011.71
2018-09-01T03:20:01.615Z,1011.69
2018-09-01T03:21:01.583Z,1011.71
2018-09-01T03:22:01.559Z,1011.71
2018-09-01T03:23:01.533Z,1011.67
2018-09-01T03:24:01.503Z,1011.66
2018-09-01T03:25:01.481Z,1011.71
2018-09-01T03:26:01.461Z,1011.67
2018-09-01T03:27:01.430Z,1011.70
2018-09-01T03:28:01.401Z,1011.70
2018-09-01T03:29:01.373Z,1011.74
2018-09-01T03:30:01.352Z,1011.75
2018-09-01T03:31:01.323Z,1011.78
2018-09-01T03:32:01.299Z,1011.78
2018-09-01T03:33:01.267Z,1011.78
2018-09-01T03:34:01.247Z,1011.78
2018-09-01T03:35:01.213Z,1011.77
2018-09-01T03:36:01.198Z,1011.76
2018-09-01T03:37:01.166Z,1011.73
2018-09-01T03:38:01.142Z,1011.75
2018-09-01T03:39:01.116Z,1011.74
2018-09-01T03:40:01.081Z,1011.73
2018-09-01T03:41:01.064Z,1011.76
2018-09-01T03:42:01.031Z,1011.73
2018-09-01T03:43:01.005Z,1011.78
2018-09-01T03:44:00.989Z,1011.77
2018-09-01T03:45:00.952Z,1011.78
2018-09-01T03:46:00.933Z,1011.78
2018-09-01T03:47:00.906Z,1011.80
2018-09-01T03:48:00.875Z,1011.80
2018-09-01T03:49:00.854Z,1011.80
2018-09-01T03:50:00.820Z,1011.79
2018-09-01T03:51:00.803Z,1011.80
2018-09-01T03:52:00.768Z,1011.81
2018-09-01T03:53:00.744Z,1011.82
2018-09-01T03:54:00.722Z,1011.83
2018-09-01T03:55:00.697Z,1011.82
2018-09-01T03:56:00.670Z,1011.85
2018-09-01T03:57:00.645Z,1011.81
2018-09-01T03:58:00.614Z,1011.79
2018-09-01T03:59:00.593Z,1011.81
2018-09-01T04:00:00.562Z,1011.83
2018-09-01T04:01:00.539Z,1011.84
2018-09-01T04:02:00.505Z,1011.85
2018-09-01T04:03:00.485Z,1011.85
2018-09-01T04:04:00.460Z,1011.86
2018-09-01T04:05:00.431Z,1011.90
2018-09-01T04:06:00.407Z,1011.86
2018-09-01T04:07:00.374Z,1011.83
2018-09-01T04:08:00.356Z,1011.81
2018-09-01T04:09:00.322Z,1011.85
2018-09-01T04:10:00.324Z,1011.85
2018-09-01T04:11:00.276Z,1011.85
2018-09-01T04:12:00.248Z,1011.87
2018-09-01T04:13:00.225Z,1011.87
2018-09-01T04:14:00.193Z,1011.85
2018-09-01T04:15:00.173Z,1011.86
2018-09-01T04:16:00.139Z,1011.86
2018-09-01T04:17:00.119Z,1011.87
2018-09-01T04:18:00.089Z,1011.88
2018-09-01T04:19:00.065Z,1011.89
2018-09-01T04:20:00.035Z,1011.89
2018-09-01T04:21:00.015Z,1011.91
2018-09-01T04:21:59.980Z,1011.88
2018-09-01T04:22:59.958Z,1011.89
2018-09-01T04:23:59.928Z,1011.85
2018-09-01T04:24:59.903Z,1011.87
2018-09-01T04:25:59.874Z,1011.85
2018-09-01T04:26:59.848Z,1011.91
2018-09-01T04:27:59.832Z,1011.88
2018-09-01T04:28:59.801Z,1011.89
2018-09-01T04:29:59.772Z,1011.93
2018-09-01T04:30:59.744Z,1011.97
2018-09-01T04:31:59.730Z,1011.95
2018-09-01T04:32:59.702Z,1011.94
2018-09-01T04:33:59.676Z,1011.92
2018-09-01T04:34:59.637Z,1011.95
2018-09-01T04:35:59.620Z,1011.95
2018-09-01T04:36:59.593Z,1011.95
2018-09-01T04:37:59.568Z,1011.94
2018-09-01T04:38:59.536Z,1011.97
2018-09-01T04:39:59.513Z,1011.97
2018-09-01T04:40:59.483Z,1011.98
2018-09-01T04:41:59.459Z,1011.96
2018-09-01T04:42:59.434Z,1011.98
2018-09-01T04:43:59.407Z,1012.01
2018-09-01T04:44:59.384Z,1011.98
2018-09-01T04:45:59.349Z,1012.02
2018-09-01T04:46:59.360Z,1011.99
2018-09-01T04:47:59.304Z,1012.01
2018-09-01T04:48:59.278Z,1012.03
2018-09-01T04:49:59.246Z,1012.02
2018-09-01T04:50:59.226Z,1012.04
2018-09-01T04:51:59.189Z,1012.01
2018-09-01T04:52:59.167Z,1011.99
2018-09-01T04:53:59.145Z,1012.05
2018-09-01T04:54:59.122Z,1012.02
2018-09-01T04:55:59.091Z,1012.09
2018-09-01T04:56:59.061Z,1012.08
2018-09-01T04:57:59.039Z,1012.08
2018-09-01T04:58:59.006Z,1012.11
2018-09-01T04:59:58.989Z,1012.10
2018-09-01T05:00:59.027Z,1012.13
2018-09-01T05:01:58.935Z,1012.13
2018-09-01T05:02:58.921Z,1012.14
2018-09-01T05:03:58.874Z,1012.13
2018-09-01T05:04:58.857Z,1012.11
2018-09-01T05:05:58.824Z,1012.11
2018-09-01T05:06:58.798Z,1012.16
2018-09-01T05:07:58.778Z,1012.17
2018-09-01T05:08:58.749Z,1012.19
2018-09-01T05:09:58.728Z,1012.20
2018-09-01T05:10:58.692Z,1012.21
2018-09-01T05:11:58.669Z,1012.19
2018-09-01T05:12:58.638Z,1012.20
2018-09-01T05:13:58.621Z,1012.19
2018-09-01T05:14:58.595Z,1012.21
2018-09-01T05:15:58.559Z,1012.24
2018-09-01T05:16:58.543Z,1012.24
2018-09-01T05:17:58.514Z,1012.21
2018-09-01T05:18:58.488Z,1012.23
2018-09-01T05:19:58.481Z,1012.21
2018-09-01T05:20:58.435Z,1012.24
2018-09-01T05:21:58.405Z,1012.29
2018-09-01T05:22:58.386Z,1012.33
2018-09-01T05:23:58.421Z,1012.35
2018-09-01T05:24:58.334Z,1012.33
2018-09-01T05:25:58.300Z,1012.35
2018-09-01T05:26:58.281Z,1012.34
2018-09-01T05:27:58.248Z,1012.36
2018-09-01T05:28:58.219Z,1012.34
2018-09-01T05:29:58.193Z,1012.38
2018-09-01T05:30:58.176Z,1012.37
2018-09-01T05:31:58.141Z,1012.39
2018-09-01T05:32:58.116Z,1012.42
2018-09-01T05:33:58.087Z,1012.37
2018-09-01T05:34:58.061Z,1012.39
2018-09-01T05:35:58.038Z,1012.44
2018-09-01T05:36:58.015Z,1012.45
2018-09-01T05:37:57.983Z,1012.48
2018-09-01T05:38:57.954Z,1012.45
2018-09-01T05:39:57.937Z,1012.45
2018-09-01T05:40:57.914Z,1012.48
2018-09-01T05:41:57.945Z,1012.48
2018-09-01T05:42:57.847Z,1012.49
2018-09-01T05:43:57.824Z,1012.53
2018-09-01T05:44:57.801Z,1012.52
2018-09-01T05:45:57.778Z,1012.60
2018-09-01T05:46:57.746Z,1012.60
2018-09-01T05:47:57.721Z,1012.59
2018-09-01T05:48:57.692Z,1012.61
2018-09-01T05:49:57.669Z,1012.63
2018-09-01T05:50:57.639Z,1012.63
2018-09-01T05:51:57.621Z,1012.63
2018-09-01T05:52:57.589Z,1012.66
2018-09-01T05:53:57.561Z,1012.67
2018-09-01T05:54:57.542Z,1012.64
2018-09-01T05:55:57.505Z,1012.68
2018-09-01T05:56:57.482Z,1012.68
2018-09-01T05:57:57.460Z,1012.71
2018-09-01T05:58:57.436Z,1012.71
2018-09-01T05:59:57.407Z,1012.69
2018-09-01T06:00:57.378Z,1012.74
2018-09-01T06:01:57.354Z,1012.73
2018-09-01T06:02:57.321Z,1012.75
2018-09-01T06:03:57.304Z,1012.72
2018-09-01T06:04:57.273Z,1012.76
2018-09-01T06:05:57.283Z,1012.75
2018-09-01T06:06:57.226Z,1012.76
2018-09-01T06:07:57.190Z,1012.79
2018-09-01T06:08:57.173Z,1012.78
2018-09-01T06:09:57.139Z,1012.78
2018-09-01T06:10:57.113Z,1012.81
2018-09-01T06:11:57.093Z,1012.82
2018-09-01T06:12:57.131Z,1012.83
2018-09-01T06:13:57.049Z,1012.84
2018-09-01T06:14:57.012Z,1012.90
2018-09-01T06:15:56.986Z,1012.88
2018-09-01T06:16:56.959Z,1012.85
2018-09-01T06:17:56.999Z,1012.94
2018-09-01T06:18:56.902Z,1012.95
2018-09-01T06:19:56.900Z,1012.96
2018-09-01T06:20:56.880Z,1012.97
2018-09-01T06:21:56.822Z,1013.02
2018-09-01T06:22:56.798Z,1012.99
2018-09-01T06:23:56.780Z,1013.01
2018-09-01T06:24:56.841Z,1013.00
2018-09-01T06:25:56.723Z,1013.02
2018-09-01T06:26:56.698Z,1013.02
2018-09-01T06:27:56.666Z,1012.97
2018-09-01T06:28:56.643Z,1013.00
2018-09-01T06:29:56.614Z,1013.00
2018-09-01T06:30:56.591Z,1013.02
2018-09-01T06:31:56.562Z,1013.00
2018-09-01T06:32:56.625Z,1012.99
2018-09-01T06:33:56.515Z,1012.99
2018-09-01T06:34:56.484Z,1013.02
2018-09-01T06:35:56.473Z,1013.05
2018-09-01T06:36:56.436Z,1013.00
2018-09-01T06:37:56.402Z,1013.04
2018-09-01T06:38:56.381Z,1013.08
2018-09-01T06:39:56.351Z,1013.07
2018-09-01T06:40:56.338Z,1013.10
2018-09-01T06:41:56.299Z,1013.11
2018-09-01T06:42:56.280Z,1013.11
2018-09-01T06:43:56.249Z,1013.14
2018-09-01T06:44:56.230Z,1013.13
2018-09-01T06:45:56.198Z,1013.15
2018-09-01T06:46:56.171Z,1013.14
2018-09-01T06:47:56.149Z,1013.16
2018-09-01T06:48:56.114Z,1013.14
2018-09-01T06:49:56.093Z,1013.13
2018-09-01T06:50:56.067Z,1013.13
2018-09-01T06:51:56.037Z,1013.14
2018-09-01T06:52:56.015Z,1013.12
2018-09-01T06:53:55.984Z,1013.15
2018-09-01T06:54:55.957Z,1013.15
2018-09-01T06:55:55.936Z,1013.11
2018-09-01T06:56:55.906Z,1013.15
2018-09-01T06:57:55.884Z,1013.08
2018-09-01T06:58:55.851Z,1013.10
2018-09-01T06:59:55.835Z,1013.08
2018-09-01T07:00:55.798Z,1013.10
2018-09-01T07:01:55.780Z,1013.06
2018-09-01T07:02:55.749Z,1013.07
2018-09-01T07:03:55.731Z,1013.11
2018-09-01T07:04:55.693Z,1013.10
2018-09-01T07:05:55.693Z,1013.16
2018-09-01T07:06:55.648Z,1013.15
2018-09-01T07:07:55.616Z,1013.17
2018-09-01T07:08:55.598Z,1013.13
2018-09-01T07:09:55.567Z,1013.19
2018-09-01T07:10:55.541Z,1013.16
2018-09-01T07:11:55.513Z,1013.16
2018-09-01T07:12:55.487Z,1013.19
2018-09-01T07:13:55.466Z,1013.14
2018-09-01T07:14:55.444Z,1013.20
2018-09-01T07:15:55.428Z,1013.18
2018-09-01T07:16:55.381Z,1013.19
2018-09-01T07:17:55.369Z,1013.19
2018-09-01T07:18:55.354Z,1013.20
2018-09-01T07:19:55.307Z,1013.18
2018-09-01T07:20:55.286Z,1013.19
2018-09-01T07:21:55.252Z,1013.21
2018-09-01T07:22:55.228Z,1013.22
2018-09-01T07:23:55.198Z,1013.20
2018-09-01T07:24:55.174Z,1013.24
2018-09-01T07:25:55.146Z,1013.29
2018-09-01T07:26:55.134Z,1013.25
2018-09-01T07:27:55.137Z,1013.29
2018-09-01T07:28:55.070Z,1013.32
2018-09-01T07:29:55.049Z,1013.36
2018-09-01T07:30:55.210Z,1013.34
2018-09-01T07:31:54.989Z,1013.33
2018-09-01T07:32:54.970Z,1013.37
2018-09-01T07:33:54.937Z,1013.37
2018-09-01T07:34:54.907Z,1013.38
2018-09-01T07:35:54.890Z,1013.40
2018-09-01T07:36:54.858Z,1013.37
2018-09-01T07:37:54.847Z,1013.44
2018-09-01T07:38:54.823Z,1013.46
2018-09-01T07:39:54.800Z,1013.38
2018-09-01T07:40:54.759Z,1013.43
2018-09-01T07:41:54.725Z,1013.43
2018-09-01T07:42:54.706Z,1013.45
2018-09-01T07:43:54.675Z,1013.41
2018-09-01T07:44:54.653Z,1013.42
2018-09-01T07:45:54.625Z,1013.43
2018-09-01T07:46:54.598Z,1013.44
2018-09-01T07:47:54.576Z,1013.45
2018-09-01T07:48:54.547Z,1013.48
2018-09-01T07:49:54.533Z,1013.42
2018-09-01T07:50:54.502Z,1013.48
2018-09-01T07:51:54.465Z,1013.47
2018-09-01T07:52:54.448Z,1013.52
2018-09-01T07:53:54.415Z,1013.47
2018-09-01T07:54:54.393Z,1013.50
2018-09-01T07:55:54.395Z,1013.50
2018-09-01T07:56:54.415Z,1013.55
2018-09-01T07:57:54.323Z,1013.52
2018-09-01T07:58:54.285Z,1013.55
2018-09-01T07:59:54.268Z,1013.55
2018-09-01T08:00:54.236Z,1013.57
2018-09-01T08:01:54.213Z,1013.56
2018-09-01T08:02:54.195Z,1013.52
2018-09-01T08:03:54.162Z,1013.58
2018-09-01T08:04:54.130Z,1013.58
2018-09-01T08:05:54.110Z,1013.59
2018-09-01T08:06:54.075Z,1013.55
2018-09-01T08:07:54.057Z,1013.56
2018-09-01T08:08:54.024Z,1013.54
2018-09-01T08:09:54.006Z,1013.55
2018-09-01T08:10:53.979Z,1013.52
2018-09-01T08:11:53.946Z,1013.48
2018-09-01T08:12:53.933Z,1013.52
2018-09-01T08:13:53.963Z,1013.56
2018-09-01T08:14:53.873Z,1013.54
2018-09-01T08:15:53.843Z,1013.56
2018-09-01T08:16:53.818Z,1013.54
2018-09-01T08:17:53.800Z,1013.63
2018-09-01T08:18:53.772Z,1013.61
2018-09-01T08:19:53.738Z,1013.61
2018-09-01T08:20:53.713Z,1013.68
2018-09-01T08:21:53.694Z,1013.71
2018-09-01T08:22:53.669Z,1013.66
2018-09-01T08:23:53.633Z,1013.67
2018-09-01T08:24:53.611Z,1013.66
2018-09-01T08:25:53.637Z,1013.65
2018-09-01T08:26:53.557Z,1013.68
2018-09-01T08:27:53.542Z,1013.67
2018-09-01T08:28:53.512Z,1013.61
2018-09-01T08:29:53.488Z,1013.59
2018-09-01T08:30:53.457Z,1013.62
2018-09-01T08:31:53.435Z,1013.63
2018-09-01T08:32:53.416Z,1013.62
2018-09-01T08:33:53.430Z,1013.60
2018-09-01T08:34:53.353Z,1013.63
2018-09-01T08:35:53.325Z,1013.62
2018-09-01T08:36:53.297Z,1013.65
2018-09-01T08:37:53.279Z,1013.66
2018-09-01T08:38:53.250Z,1013.61
2018-09-01T08:39:53.229Z,1013.66
2018-09-01T08:40:53.194Z,1013.66
2018-09-01T08:41:53.177Z,1013.68
2018-09-01T08:42:53.146Z,1013.66
2018-09-01T08:43:53.122Z,1013.69
2018-09-01T08:44:53.097Z,1013.72
2018-09-01T08:45:53.069Z,1013.73
2018-09-01T08:46:53.047Z,1013.68
2018-09-01T08:47:53.014Z,1013.68
2018-09-01T08:48:52.991Z,1013.69
2018-09-01T08:49:52.964Z,1013.73
2018-09-01T08:50:52.940Z,1013.71
2018-09-01T08:51:52.916Z,1013.72
2018-09-01T08:52:52.886Z,1013.82
2018-09-01T08:53:52.865Z,1013.73
2018-09-01T08:54:52.839Z,1013.76
2018-09-01T08:55:52.810Z,1013.82
2018-09-01T08:56:52.792Z,1013.80
2018-09-01T08:57:52.760Z,1013.85
2018-09-01T08:58:52.739Z,1013.82
2018-09-01T08:59:52.711Z,1013.81
2018-09-01T09:00:52.683Z,1013.86
2018-09-01T09:01:52.654Z,1013.84
2018-09-01T09:02:52.634Z,1013.81
2018-09-01T09:03:52.600Z,1013.83
2018-09-01T09:04:52.586Z,1013.84
2018-09-01T09:05:52.547Z,1013.85
2018-09-01T09:06:52.528Z,1013.85
2018-09-01T09:07:52.501Z,1013.88
2018-09-01T09:08:52.478Z,1013.91
2018-09-01T09:09:52.449Z,1013.90
2018-09-01T09:10:52.425Z,1013.93
2018-09-01T09:11:52.404Z,1013.94
2018-09-01T09:12:52.369Z,1013.90
2018-09-01T09:13:52.352Z,1013.94
2018-09-01T09:14:52.324Z,1013.92
2018-09-01T09:15:52.290Z,1013.94
2018-09-01T09:16:52.268Z,1013.91
2018-09-01T09:17:52.238Z,1013.94
2018-09-01T09:18:52.212Z,1013.93
2018-09-01T09:19:52.196Z,1013.93
2018-09-01T09:20:52.167Z,1013.91
2018-09-01T09:21:52.139Z,1013.88
2018-09-01T09:22:52.115Z,1013.90
2018-09-01T09:23:52.090Z,1013.90
2018-09-01T09:24:52.068Z,1013.83
2018-09-01T09:25:52.035Z,1013.85
2018-09-01T09:26:52.010Z,1013.84
2018-09-01T09:27:51.985Z,1013.88
2018-09-01T09:28:51.964Z,1013.92
2018-09-01T09:29:51.931Z,1013.89
2018-09-01T09:30:51.903Z,1013.85
2018-09-01T09:31:51.927Z,1013.88
2018-09-01T09:32:51.858Z,1013.89
2018-09-01T09:33:51.835Z,1013.89
2018-09-01T09:34:51.806Z,1013.92
2018-09-01T09:35:51.782Z,1013.95
2018-09-01T09:36:51.761Z,1013.94
2018-09-01T09:37:51.725Z,1013.93
2018-09-01T09:38:51.703Z,1013.96
2018-09-01T09:39:51.677Z,1013.99
2018-09-01T09:40:51.655Z,1013.99
2018-09-01T09:41:51.686Z,1014.02
2018-09-01T09:42:51.604Z,1014.02
2018-09-01T09:43:51.579Z,1014.05
2018-09-01T09:44:51.552Z,1014.04
2018-09-01T09:45:51.522Z,1014.01
2018-09-01T09:46:51.497Z,1014.03
2018-09-01T09:47:51.472Z,1013.98
2018-09-01T09:48:51.447Z,1013.96
2018-09-01T09:49:51.424Z,1014.00
2018-09-01T09:50:51.396Z,1014.07
2018-09-01T09:51:51.368Z,1014.00
2018-09-01T09:52:51.392Z,1014.03
2018-09-01T09:53:51.322Z,1014.00
2018-09-01T09:54:51.295Z,1013.93
2018-09-01T09:55:51.271Z,1013.94
2018-09-01T09:56:51.240Z,1013.93
2018-09-01T09:57:51.217Z,1013.91
2018-09-01T09:58:51.197Z,1013.93
2018-09-01T09:59:51.160Z,1013.92
2018-09-01T10:00:51.177Z,1013.93
2018-09-01T10:01:51.112Z,1013.95
2018-09-01T10:02:51.090Z,1013.86
2018-09-01T10:03:51.067Z,1013.93
2018-09-01T10:04:51.034Z,1013.96
2018-09-01T10:05:51.017Z,1013.91
2018-09-01T10:06:50.990Z,1013.92
2018-09-01T10:07:50.959Z,1013.93
2018-09-01T10:08:50.943Z,1013.89
2018-09-01T10:09:50.907Z,1013.88
2018-09-01T10:10:50.902Z,1013.86
2018-09-01T10:11:50.863Z,1013.86
2018-09-01T10:12:50.842Z,1013.85
2018-09-01T10:13:50.812Z,1013.89
2018-09-01T10:14:50.779Z,1013.88
2018-09-01T10:15:50.813Z,1013.92
2018-09-01T10:16:50.749Z,1013.89
2018-09-01T10:17:50.712Z,1013.90
2018-09-01T10:18:50.680Z,1013.93
2018-09-01T10:19:50.670Z,1013.95
2018-09-01T10:20:50.628Z,1013.91
2018-09-01T10:21:50.602Z,1013.88
2018-09-01T10:22:50.575Z,1013.91
2018-09-01T10:23:50.557Z,1013.92
2018-09-01T10:24:50.532Z,1013.92
2018-09-01T10:25:50.502Z,1013.93
2018-09-01T10:26:50.524Z,1013.92
2018-09-01T10:27:50.454Z,1013.85
2018-09-01T10:28:50.430Z,1013.90
2018-09-01T10:29:50.398Z,1013.90
2018-09-01T10:30:50.382Z,1013.91
2018-09-01T10:31:50.358Z,1013.90
2018-09-01T10:32:50.326Z,1013.87
2018-09-01T10:33:50.426Z,1013.94
2018-09-01T10:34:50.283Z,1013.93
2018-09-01T10:35:50.250Z,1013.92
2018-09-01T10:36:50.218Z,1013.92
2018-09-01T10:37:50.198Z,1013.93
2018-09-01T10:38:50.178Z,1013.93
2018-09-01T10:39:50.144Z,1013.92
2018-09-01T10:40:50.121Z,1013.98
2018-09-01T10:41:50.100Z,1013.95
2018-09-01T10:42:50.065Z,1013.97
2018-09-01T10:43:50.049Z,1013.92
2018-09-01T10:44:50.020Z,1013.89
2018-09-01T10:45:49.991Z,1013.91
2018-09-01T10:46:49.972Z,1013.97
2018-09-01T10:47:49.947Z,1013.94
2018-09-01T10:48:49.918Z,1013.93
2018-09-01T10:49:49.897Z,1013.93
2018-09-01T10:50:49.871Z,1013.94
2018-09-01T10:51:49.861Z,1013.88
2018-09-01T10:52:49.816Z,1013.85
2018-09-01T10:53:49.794Z,1013.85
2018-09-01T10:54:49.768Z,1013.91
2018-09-01T10:55:49.740Z,1013.86
2018-09-01T10:56:49.717Z,1013.84
2018-09-01T10:57:49.694Z,1013.82
2018-09-01T10:58:49.682Z,1013.84
2018-09-01T10:59:49.738Z,1013.76
2018-09-01T11:00:49.630Z,1013.76
2018-09-01T11:01:49.592Z,1013.69
2018-09-01T11:02:49.565Z,1013.64
2018-09-01T11:03:49.536Z,1013.72
2018-09-01T11:04:49.519Z,1013.63
2018-09-01T11:05:49.488Z,1013.66
2018-09-01T11:06:49.465Z,1013.70
2018-09-01T11:07:49.447Z,1013.69
2018-09-01T11:08:49.416Z,1013.77
2018-09-01T11:09:49.392Z,1013.78
2018-09-01T11:10:49.367Z,1013.72
2018-09-01T11:11:49.346Z,1013.73
2018-09-01T11:12:49.314Z,1013.72
2018-09-01T11:13:49.287Z,1013.74
2018-09-01T11:14:49.264Z,1013.68
2018-09-01T11:15:49.241Z,1013.63
2018-09-01T11:16:49.213Z,1013.65
2018-09-01T11:17:49.186Z,1013.71
2018-09-01T11:18:49.164Z,1013.68
2018-09-01T11:19:49.134Z,1013.69
2018-09-01T11:20:49.123Z,1013.70
2018-09-01T11:21:49.084Z,1013.72
2018-09-01T11:22:49.069Z,1013.70
2018-09-01T11:23:49.031Z,1013.59
2018-09-01T11:24:49.015Z,1013.66
2018-09-01T11:25:48.983Z,1013.68
2018-09-01T11:26:48.956Z,1013.70
2018-09-01T11:27:48.972Z,1013.66
2018-09-01T11:28:48.914Z,1013.64
2018-09-01T11:29:48.885Z,1013.63
2018-09-01T11:30:48.864Z,1013.62
2018-09-01T11:31:48.831Z,1013.60
2018-09-01T11:32:48.808Z,1013.55
2018-09-01T11:33:48.787Z,1013.60
2018-09-01T11:34:48.765Z,1013.57
2018-09-01T11:35:48.737Z,1013.52
2018-09-01T11:36:48.795Z,1013.53
2018-09-01T11:37:48.686Z,1013.55
2018-09-01T11:38:48.658Z,1013.54
2018-09-01T11:39:48.633Z,1013.50
2018-09-01T11:40:48.613Z,1013.47
2018-09-01T11:41:48.587Z,1013.48
2018-09-01T11:42:48.644Z,1013.51
2018-09-01T11:43:48.536Z,1013.48
2018-09-01T11:44:48.519Z,1013.45
2018-09-01T11:45:48.485Z,1013.43
2018-09-01T11:46:48.457Z,1013.46
2018-09-01T11:47:48.441Z,1013.46
2018-09-01T11:48:48.407Z,1013.45
2018-09-01T11:49:48.392Z,1013.38
2018-09-01T11:50:48.362Z,1013.42
2018-09-01T11:51:48.341Z,1013.47
2018-09-01T11:52:48.317Z,1013.42
2018-09-01T11:53:48.309Z,1013.42
2018-09-01T11:54:48.266Z,1013.49
2018-09-01T11:55:48.236Z,1013.48
2018-09-01T11:56:48.221Z,1013.51
2018-09-01T11:57:48.190Z,1013.53
2018-09-01T11:58:48.258Z,1013.53
2018-09-01T11:59:48.143Z,1013.52
2018-09-01T12:00:48.113Z,1013.54
2018-09-01T12:01:48.094Z,1013.53
2018-09-01T12:02:48.068Z,1013.59
2018-09-01T12:03:48.062Z,1013.57
2018-09-01T12:04:48.019Z,1013.58